sensor_id;sensor_type;location;lat;lon;timestamp;temperature;humidity
53645;DHT22;39547;45.554;12.068;2024-03-07T00:02:21;10.80;87.90
53645;DHT22;39547;45.554;12.068;2024-03-07T00:08:25;10.80;88.00
53645;DHT22;39547;45.554;12.068;2024-03-07T00:14:26;10.70;88.20
53645;DHT22;39547;45.554;12.068;2024-03-07T00:20:28;10.70;88.20
53645;DHT22;39547;45.554;12.068;2024-03-07T00:26:30;10.70;88.40
53645;DHT22;39547;45.554;12.068;2024-03-07T00:32:31;10.70;88.30
53645;DHT22;39547;45.554;12.068;2024-03-07T00:38:36;10.70;88.20
53645;DHT22;39547;45.554;12.068;2024-03-07T00:44:39;10.70;88.40
53645;DHT22;39547;45.554;12.068;2024-03-07T00:50:41;10.70;88.60
53645;DHT22;39547;45.554;12.068;2024-03-07T00:56:44;10.70;88.80
53645;DHT22;39547;45.554;12.068;2024-03-07T01:02:45;10.70;88.50
53645;DHT22;39547;45.554;12.068;2024-03-07T01:08:49;10.70;88.60
53645;DHT22;39547;45.554;12.068;2024-03-07T01:14:51;10.70;88.40
53645;DHT22;39547;45.554;12.068;2024-03-07T01:20:53;10.60;88.40
53645;DHT22;39547;45.554;12.068;2024-03-07T01:26:56;10.60;88.30
53645;DHT22;39547;45.554;12.068;2024-03-07T01:32:57;10.60;88.40
53645;DHT22;39547;45.554;12.068;2024-03-07T01:39:00;10.60;88.60
53645;DHT22;39547;45.554;12.068;2024-03-07T01:45:01;10.60;88.70
53645;DHT22;39547;45.554;12.068;2024-03-07T01:51:03;10.60;88.70
53645;DHT22;39547;45.554;12.068;2024-03-07T01:57:07;10.60;88.50
53645;DHT22;39547;45.554;12.068;2024-03-07T02:03:09;10.60;88.60
53645;DHT22;39547;45.554;12.068;2024-03-07T02:09:11;10.60;88.70
53645;DHT22;39547;45.554;12.068;2024-03-07T02:15:13;10.70;88.70
53645;DHT22;39547;45.554;12.068;2024-03-07T02:21:15;10.70;88.80
53645;DHT22;39547;45.554;12.068;2024-03-07T02:27:17;10.70;88.80
53645;DHT22;39547;45.554;12.068;2024-03-07T02:33:18;10.70;88.60
53645;DHT22;39547;45.554;12.068;2024-03-07T02:39:20;10.70;88.70
53645;DHT22;39547;45.554;12.068;2024-03-07T02:45:26;10.70;88.60
53645;DHT22;39547;45.554;12.068;2024-03-07T02:51:28;10.70;88.80
53645;DHT22;39547;45.554;12.068;2024-03-07T02:57:29;10.70;88.70
53645;DHT22;39547;45.554;12.068;2024-03-07T03:03:32;10.70;88.70
53645;DHT22;39547;45.554;12.068;2024-03-07T03:09:34;10.70;88.80
53645;DHT22;39547;45.554;12.068;2024-03-07T03:15:41;10.70;88.80
53645;DHT22;39547;45.554;12.068;2024-03-07T03:21:42;10.70;88.90
53645;DHT22;39547;45.554;12.068;2024-03-07T03:27:44;10.70;88.60
53645;DHT22;39547;45.554;12.068;2024-03-07T03:33:46;10.60;88.50
53645;DHT22;39547;45.554;12.068;2024-03-07T03:39:47;10.60;88.40
53645;DHT22;39547;45.554;12.068;2024-03-07T03:45:49;10.50;88.40
53645;DHT22;39547;45.554;12.068;2024-03-07T03:51:50;10.50;88.40
53645;DHT22;39547;45.554;12.068;2024-03-07T03:57:52;10.50;88.50
53645;DHT22;39547;45.554;12.068;2024-03-07T04:03:54;10.50;88.60
53645;DHT22;39547;45.554;12.068;2024-03-07T04:09:57;10.50;88.60
53645;DHT22;39547;45.554;12.068;2024-03-07T04:16:04;10.50;88.60
53645;DHT22;39547;45.554;12.068;2024-03-07T04:22:06;10.50;88.70
53645;DHT22;39547;45.554;12.068;2024-03-07T04:28:09;10.50;88.90
53645;DHT22;39547;45.554;12.068;2024-03-07T04:34:11;10.50;89.10
53645;DHT22;39547;45.554;12.068;2024-03-07T04:40:13;10.50;89.00
53645;DHT22;39547;45.554;12.068;2024-03-07T04:46:18;10.40;89.10
53645;DHT22;39547;45.554;12.068;2024-03-07T04:52:20;10.40;89.20
53645;DHT22;39547;45.554;12.068;2024-03-07T04:58:21;10.50;89.30
53645;DHT22;39547;45.554;12.068;2024-03-07T05:04:23;10.40;89.40
53645;DHT22;39547;45.554;12.068;2024-03-07T05:10:25;10.40;89.50
53645;DHT22;39547;45.554;12.068;2024-03-07T05:16:31;10.40;89.60
53645;DHT22;39547;45.554;12.068;2024-03-07T05:22:33;10.40;89.70
53645;DHT22;39547;45.554;12.068;2024-03-07T05:28:34;10.40;89.70
53645;DHT22;39547;45.554;12.068;2024-03-07T05:34:36;10.30;89.70
53645;DHT22;39547;45.554;12.068;2024-03-07T05:40:42;10.40;89.90
53645;DHT22;39547;45.554;12.068;2024-03-07T05:46:44;10.40;89.90
53645;DHT22;39547;45.554;12.068;2024-03-07T05:52:49;10.40;90.00
53645;DHT22;39547;45.554;12.068;2024-03-07T05:58:51;10.40;90.10
53645;DHT22;39547;45.554;12.068;2024-03-07T06:04:53;10.40;90.10
53645;DHT22;39547;45.554;12.068;2024-03-07T06:10:54;10.50;90.30
53645;DHT22;39547;45.554;12.068;2024-03-07T06:16:56;10.50;90.30
53645;DHT22;39547;45.554;12.068;2024-03-07T06:22:59;10.50;90.40
53645;DHT22;39547;45.554;12.068;2024-03-07T06:29:07;10.50;90.40
53645;DHT22;39547;45.554;12.068;2024-03-07T06:35:09;10.60;90.40
53645;DHT22;39547;45.554;12.068;2024-03-07T06:41:13;10.60;90.40
53645;DHT22;39547;45.554;12.068;2024-03-07T06:47:15;10.60;90.40
53645;DHT22;39547;45.554;12.068;2024-03-07T06:53:18;10.70;90.30
53645;DHT22;39547;45.554;12.068;2024-03-07T06:59:20;10.60;90.60
53645;DHT22;39547;45.554;12.068;2024-03-07T07:05:22;10.70;90.80
53645;DHT22;39547;45.554;12.068;2024-03-07T07:11:24;10.70;90.90
53645;DHT22;39547;45.554;12.068;2024-03-07T07:17:26;10.70;90.70
53645;DHT22;39547;45.554;12.068;2024-03-07T07:23:30;10.70;90.90
53645;DHT22;39547;45.554;12.068;2024-03-07T07:29:31;10.70;91.00
53645;DHT22;39547;45.554;12.068;2024-03-07T07:35:33;10.70;90.90
53645;DHT22;39547;45.554;12.068;2024-03-07T07:41:36;10.70;90.80
53645;DHT22;39547;45.554;12.068;2024-03-07T07:47:44;10.80;91.20
53645;DHT22;39547;45.554;12.068;2024-03-07T07:53:46;10.90;91.30
53645;DHT22;39547;45.554;12.068;2024-03-07T07:59:48;11.00;91.40
53645;DHT22;39547;45.554;12.068;2024-03-07T08:05:51;11.10;91.30
53645;DHT22;39547;45.554;12.068;2024-03-07T08:11:52;11.20;91.30
53645;DHT22;39547;45.554;12.068;2024-03-07T08:17:58;11.20;91.20
53645;DHT22;39547;45.554;12.068;2024-03-07T08:24:00;11.20;91.30
53645;DHT22;39547;45.554;12.068;2024-03-07T08:30:06;11.40;91.20
53645;DHT22;39547;45.554;12.068;2024-03-07T08:36:08;11.60;91.40
53645;DHT22;39547;45.554;12.068;2024-03-07T08:42:11;11.70;90.80
53645;DHT22;39547;45.554;12.068;2024-03-07T08:48:12;11.80;91.30
53645;DHT22;39547;45.554;12.068;2024-03-07T08:54:14;12.00;91.00
53645;DHT22;39547;45.554;12.068;2024-03-07T09:00:18;12.00;90.80
53645;DHT22;39547;45.554;12.068;2024-03-07T09:06:40;12.10;89.80
53645;DHT22;39547;45.554;12.068;2024-03-07T09:12:50;12.10;89.70
53645;DHT22;39547;45.554;12.068;2024-03-07T09:18:53;12.20;90.10
53645;DHT22;39547;45.554;12.068;2024-03-07T09:24:54;12.20;88.70
53645;DHT22;39547;45.554;12.068;2024-03-07T09:31:02;12.20;88.30
53645;DHT22;39547;45.554;12.068;2024-03-07T09:37:07;12.20;88.40
53645;DHT22;39547;45.554;12.068;2024-03-07T09:43:21;12.20;85.50
53645;DHT22;39547;45.554;12.068;2024-03-07T09:49:25;12.20;84.40
53645;DHT22;39547;45.554;12.068;2024-03-07T09:55:29;12.20;83.90
53645;DHT22;39547;45.554;12.068;2024-03-07T10:01:33;12.10;82.80
53645;DHT22;39547;45.554;12.068;2024-03-07T10:07:37;12.10;83.60
53645;DHT22;39547;45.554;12.068;2024-03-07T10:13:39;12.20;83.90
53645;DHT22;39547;45.554;12.068;2024-03-07T10:19:41;12.30;84.30
53645;DHT22;39547;45.554;12.068;2024-03-07T10:25:42;12.60;84.40
53645;DHT22;39547;45.554;12.068;2024-03-07T10:31:46;12.70;84.30
53645;DHT22;39547;45.554;12.068;2024-03-07T10:37:48;13.00;85.00
53645;DHT22;39547;45.554;12.068;2024-03-07T10:43:51;13.40;84.30
53645;DHT22;39547;45.554;12.068;2024-03-07T10:50:24;13.70;83.00
53645;DHT22;39547;45.554;12.068;2024-03-07T11:02:52;14.40;82.90
53645;DHT22;39547;45.554;12.068;2024-03-07T11:08:55;14.60;81.20
53645;DHT22;39547;45.554;12.068;2024-03-07T11:15:01;14.70;81.40
53645;DHT22;39547;45.554;12.068;2024-03-07T11:21:40;14.70;81.10
53645;DHT22;39547;45.554;12.068;2024-03-07T11:27:58;14.80;79.90
53645;DHT22;39547;45.554;12.068;2024-03-07T11:34:22;14.90;78.60
53645;DHT22;39547;45.554;12.068;2024-03-07T11:46:36;15.20;74.90
53645;DHT22;39547;45.554;12.068;2024-03-07T11:52:41;15.10;75.40
53645;DHT22;39547;45.554;12.068;2024-03-07T11:58:48;15.20;71.40
53645;DHT22;39547;45.554;12.068;2024-03-07T12:04:58;15.00;70.20
53645;DHT22;39547;45.554;12.068;2024-03-07T12:11:12;14.80;71.80
53645;DHT22;39547;45.554;12.068;2024-03-07T12:17:17;14.80;72.50
53645;DHT22;39547;45.554;12.068;2024-03-07T12:23:19;14.90;72.10
53645;DHT22;39547;45.554;12.068;2024-03-07T12:29:25;15.00;72.60
53645;DHT22;39547;45.554;12.068;2024-03-07T12:35:32;15.00;74.00
53645;DHT22;39547;45.554;12.068;2024-03-07T12:41:34;14.90;74.20
53645;DHT22;39547;45.554;12.068;2024-03-07T12:47:35;15.00;74.10
53645;DHT22;39547;45.554;12.068;2024-03-07T12:53:38;15.10;73.10
53645;DHT22;39547;45.554;12.068;2024-03-07T12:59:41;15.20;73.10
53645;DHT22;39547;45.554;12.068;2024-03-07T13:05:42;15.30;72.90
53645;DHT22;39547;45.554;12.068;2024-03-07T13:11:44;15.40;73.10
53645;DHT22;39547;45.554;12.068;2024-03-07T13:17:48;15.50;71.50
53645;DHT22;39547;45.554;12.068;2024-03-07T13:23:55;15.50;70.20
53645;DHT22;39547;45.554;12.068;2024-03-07T13:29:59;15.40;72.70
53645;DHT22;39547;45.554;12.068;2024-03-07T13:36:01;15.30;73.70
53645;DHT22;39547;45.554;12.068;2024-03-07T13:42:04;15.30;73.40
53645;DHT22;39547;45.554;12.068;2024-03-07T13:48:07;15.30;73.50
53645;DHT22;39547;45.554;12.068;2024-03-07T13:54:09;15.20;73.10
53645;DHT22;39547;45.554;12.068;2024-03-07T14:00:49;15.10;72.60
53645;DHT22;39547;45.554;12.068;2024-03-07T14:13:42;15.10;74.00
53645;DHT22;39547;45.554;12.068;2024-03-07T14:33:46;14.70;75.00
53645;DHT22;39547;45.554;12.068;2024-03-07T14:39:56;14.60;75.50
53645;DHT22;39547;45.554;12.068;2024-03-07T14:46:12;14.40;74.50
53645;DHT22;39547;45.554;12.068;2024-03-07T14:52:15;14.20;75.70
53645;DHT22;39547;45.554;12.068;2024-03-07T14:58:17;14.20;75.90
53645;DHT22;39547;45.554;12.068;2024-03-07T15:04:19;14.20;76.10
53645;DHT22;39547;45.554;12.068;2024-03-07T15:10:36;14.20;77.00
53645;DHT22;39547;45.554;12.068;2024-03-07T15:16:38;14.10;76.80
53645;DHT22;39547;45.554;12.068;2024-03-07T15:22:41;14.00;77.50
53645;DHT22;39547;45.554;12.068;2024-03-07T15:28:47;13.90;76.50
53645;DHT22;39547;45.554;12.068;2024-03-07T15:34:49;13.80;78.20
53645;DHT22;39547;45.554;12.068;2024-03-07T15:41:00;13.70;78.70
53645;DHT22;39547;45.554;12.068;2024-03-07T15:47:03;13.70;79.00
53645;DHT22;39547;45.554;12.068;2024-03-07T15:53:08;13.70;79.00
53645;DHT22;39547;45.554;12.068;2024-03-07T15:59:10;13.70;79.40
53645;DHT22;39547;45.554;12.068;2024-03-07T16:05:12;13.60;79.80
53645;DHT22;39547;45.554;12.068;2024-03-07T16:11:18;13.50;79.50
53645;DHT22;39547;45.554;12.068;2024-03-07T16:17:25;13.40;80.30
53645;DHT22;39547;45.554;12.068;2024-03-07T16:23:26;13.30;80.20
53645;DHT22;39547;45.554;12.068;2024-03-07T16:29:29;13.20;80.90
53645;DHT22;39547;45.554;12.068;2024-03-07T16:35:30;13.20;81.00
53645;DHT22;39547;45.554;12.068;2024-03-07T16:41:32;13.20;81.40
53645;DHT22;39547;45.554;12.068;2024-03-07T16:47:39;13.10;81.60
53645;DHT22;39547;45.554;12.068;2024-03-07T16:53:42;13.00;81.80
53645;DHT22;39547;45.554;12.068;2024-03-07T16:59:43;12.90;81.90
53645;DHT22;39547;45.554;12.068;2024-03-07T17:05:45;12.80;82.20
53645;DHT22;39547;45.554;12.068;2024-03-07T17:11:47;12.80;82.50
53645;DHT22;39547;45.554;12.068;2024-03-07T17:17:50;12.70;82.80
53645;DHT22;39547;45.554;12.068;2024-03-07T17:23:52;12.70;82.90
53645;DHT22;39547;45.554;12.068;2024-03-07T17:29:54;12.70;83.00
53645;DHT22;39547;45.554;12.068;2024-03-07T17:35:56;12.60;83.30
53645;DHT22;39547;45.554;12.068;2024-03-07T17:41:59;12.50;83.40
53645;DHT22;39547;45.554;12.068;2024-03-07T17:48:01;12.50;83.50
53645;DHT22;39547;45.554;12.068;2024-03-07T17:54:04;12.50;83.60
53645;DHT22;39547;45.554;12.068;2024-03-07T18:00:06;12.40;83.80
53645;DHT22;39547;45.554;12.068;2024-03-07T18:06:18;12.50;83.90
53645;DHT22;39547;45.554;12.068;2024-03-07T18:12:24;12.40;83.50
53645;DHT22;39547;45.554;12.068;2024-03-07T18:18:28;12.40;83.50
53645;DHT22;39547;45.554;12.068;2024-03-07T18:24:30;12.20;83.50
53645;DHT22;39547;45.554;12.068;2024-03-07T18:30:33;12.20;83.60
53645;DHT22;39547;45.554;12.068;2024-03-07T18:36:34;12.20;83.70
53645;DHT22;39547;45.554;12.068;2024-03-07T18:42:37;12.10;83.80
53645;DHT22;39547;45.554;12.068;2024-03-07T18:48:39;12.10;83.90
53645;DHT22;39547;45.554;12.068;2024-03-07T18:54:43;12.10;83.80
53645;DHT22;39547;45.554;12.068;2024-03-07T19:00:47;12.00;83.50
53645;DHT22;39547;45.554;12.068;2024-03-07T19:06:48;12.00;83.40
53645;DHT22;39547;45.554;12.068;2024-03-07T19:12:50;11.90;83.20
53645;DHT22;39547;45.554;12.068;2024-03-07T19:18:52;11.90;83.40
53645;DHT22;39547;45.554;12.068;2024-03-07T19:24:54;11.80;83.40
53645;DHT22;39547;45.554;12.068;2024-03-07T19:30:56;11.80;83.20
53645;DHT22;39547;45.554;12.068;2024-03-07T19:36:58;11.70;83.30
53645;DHT22;39547;45.554;12.068;2024-03-07T19:43:00;11.70;83.70
53645;DHT22;39547;45.554;12.068;2024-03-07T19:49:03;11.60;83.10
53645;DHT22;39547;45.554;12.068;2024-03-07T19:55:07;11.50;83.30
53645;DHT22;39547;45.554;12.068;2024-03-07T20:01:11;11.40;83.00
53645;DHT22;39547;45.554;12.068;2024-03-07T20:07:13;11.20;83.10
53645;DHT22;39547;45.554;12.068;2024-03-07T20:13:14;11.20;83.20
53645;DHT22;39547;45.554;12.068;2024-03-07T20:19:17;11.10;83.40
53645;DHT22;39547;45.554;12.068;2024-03-07T20:25:20;11.00;83.10
53645;DHT22;39547;45.554;12.068;2024-03-07T20:31:22;11.00;83.40
53645;DHT22;39547;45.554;12.068;2024-03-07T20:37:23;10.90;83.70
53645;DHT22;39547;45.554;12.068;2024-03-07T20:43:27;10.90;83.90
53645;DHT22;39547;45.554;12.068;2024-03-07T20:49:29;10.90;84.10
53645;DHT22;39547;45.554;12.068;2024-03-07T20:55:30;10.90;83.60
53645;DHT22;39547;45.554;12.068;2024-03-07T21:01:32;10.80;83.80
53645;DHT22;39547;45.554;12.068;2024-03-07T21:07:34;10.80;83.50
53645;DHT22;39547;45.554;12.068;2024-03-07T21:13:39;10.80;83.70
53645;DHT22;39547;45.554;12.068;2024-03-07T21:19:41;10.80;84.10
53645;DHT22;39547;45.554;12.068;2024-03-07T21:25:43;10.80;84.30
53645;DHT22;39547;45.554;12.068;2024-03-07T21:31:45;10.80;84.30
53645;DHT22;39547;45.554;12.068;2024-03-07T21:37:47;10.80;84.30
53645;DHT22;39547;45.554;12.068;2024-03-07T21:43:51;10.70;83.90
53645;DHT22;39547;45.554;12.068;2024-03-07T21:49:53;10.70;83.60
53645;DHT22;39547;45.554;12.068;2024-03-07T21:55:55;10.70;84.00
53645;DHT22;39547;45.554;12.068;2024-03-07T22:02:03;10.60;83.70
53645;DHT22;39547;45.554;12.068;2024-03-07T22:08:07;10.60;84.10
53645;DHT22;39547;45.554;12.068;2024-03-07T22:14:09;10.50;85.00
53645;DHT22;39547;45.554;12.068;2024-03-07T22:20:11;10.40;85.00
53645;DHT22;39547;45.554;12.068;2024-03-07T22:26:15;10.30;85.20
53645;DHT22;39547;45.554;12.068;2024-03-07T22:32:17;10.20;85.80
53645;DHT22;39547;45.554;12.068;2024-03-07T22:38:19;10.10;86.00
53645;DHT22;39547;45.554;12.068;2024-03-07T22:44:22;10.10;86.40
53645;DHT22;39547;45.554;12.068;2024-03-07T22:50:26;10.10;86.70
53645;DHT22;39547;45.554;12.068;2024-03-07T22:56:28;10.10;86.80
53645;DHT22;39547;45.554;12.068;2024-03-07T23:02:29;10.10;87.00
53645;DHT22;39547;45.554;12.068;2024-03-07T23:08:32;10.00;87.00
53645;DHT22;39547;45.554;12.068;2024-03-07T23:14:38;9.90;87.00
53645;DHT22;39547;45.554;12.068;2024-03-07T23:29:13;9.80;86.70
53645;DHT22;39547;45.554;12.068;2024-03-07T23:35:17;9.70;86.60
53645;DHT22;39547;45.554;12.068;2024-03-07T23:41:19;9.70;86.70
53645;DHT22;39547;45.554;12.068;2024-03-07T23:47:21;9.70;87.00
53645;DHT22;39547;45.554;12.068;2024-03-07T23:53:23;9.70;87.00
53645;DHT22;39547;45.554;12.068;2024-03-07T23:59:27;9.80;87.40
